createdAt,value
2019-05-17T00:00:16.785Z,73.10
2019-05-17T00:02:48.480Z,73.10
2019-05-17T00:05:19.017Z,73.10
2019-05-17T00:07:49.562Z,73.10
2019-05-17T00:10:20.108Z,73.20
2019-05-17T00:12:50.994Z,73.30
2019-05-17T00:15:21.558Z,73.20
2019-05-17T00:17:53.070Z,74.10
2019-05-17T00:20:26.459Z,73.30
2019-05-17T00:22:57.347Z,73.40
2019-05-17T00:25:28.113Z,73.20
2019-05-17T00:27:58.686Z,73.20
2019-05-17T00:30:29.282Z,73.20
2019-05-17T00:32:59.739Z,73.20
2019-05-17T00:35:30.882Z,73.30
2019-05-17T00:38:01.408Z,73.20
2019-05-17T00:40:36.690Z,73.20
2019-05-17T00:43:07.515Z,73.20
2019-05-17T00:45:38.108Z,73.20
2019-05-17T00:48:10.102Z,73.10
2019-05-17T00:50:40.615Z,73.30
2019-05-17T00:53:11.374Z,73.20
2019-05-17T00:55:41.876Z,73.30
2019-05-17T00:58:12.449Z,73.30
2019-05-17T01:00:42.943Z,73.40
2019-05-17T01:03:13.405Z,73.50
2019-05-17T01:05:43.928Z,73.40
2019-05-17T01:08:14.394Z,73.50
2019-05-17T01:10:47.523Z,73.70
2019-05-17T01:13:18.212Z,73.60
2019-05-17T01:15:48.962Z,73.50
2019-05-17T01:18:19.421Z,73.50
2019-05-17T01:20:49.957Z,73.50
2019-05-17T01:23:20.431Z,73.40
2019-05-17T01:25:51.218Z,73.40
2019-05-17T01:28:21.872Z,73.40
2019-05-17T01:30:52.388Z,73.30
2019-05-17T01:33:23.221Z,73.60
2019-05-17T01:35:53.744Z,73.50
2019-05-17T01:38:26.774Z,73.50
2019-05-17T01:40:56.541Z,73.60
2019-05-17T01:43:27.462Z,73.70
2019-05-17T01:45:58.343Z,73.60
2019-05-17T01:48:29.376Z,73.50
2019-05-17T01:50:59.882Z,73.80
2019-05-17T01:53:30.407Z,73.70
2019-05-17T01:56:01.012Z,73.70
2019-05-17T01:58:31.624Z,73.80
2019-05-17T02:01:02.192Z,73.70
2019-05-17T02:03:32.679Z,73.80
2019-05-17T02:06:03.362Z,73.70
2019-05-17T02:08:33.861Z,73.70
2019-05-17T02:11:06.658Z,73.60
2019-05-17T02:13:37.857Z,73.60
2019-05-17T02:16:08.422Z,73.60
2019-05-17T02:18:38.930Z,73.50
2019-05-17T02:21:09.831Z,73.50
2019-05-17T02:23:40.405Z,73.70
2019-05-17T02:26:11.079Z,73.50
2019-05-17T02:28:41.573Z,73.60
2019-05-17T02:31:13.294Z,73.60
2019-05-17T02:33:44.614Z,73.60
2019-05-17T02:36:15.115Z,73.60
2019-05-17T02:38:45.640Z,73.50
2019-05-17T02:41:16.099Z,73.60
2019-05-17T02:43:46.636Z,73.50
2019-05-17T02:46:17.321Z,73.50
2019-05-17T02:48:47.915Z,73.60
2019-05-17T02:51:18.413Z,73.60
2019-05-17T02:53:48.975Z,73.60
2019-05-17T02:56:19.425Z,73.60
2019-05-17T02:58:53.331Z,73.70
2019-05-17T03:01:23.327Z,73.80
2019-05-17T03:03:55.030Z,73.70
2019-05-17T03:06:25.548Z,73.80
2019-05-17T03:08:56.013Z,73.90
2019-05-17T03:11:26.492Z,73.90
2019-05-17T03:13:59.434Z,73.90
2019-05-17T03:16:33.579Z,74.00
2019-05-17T03:19:04.156Z,74.00
2019-05-17T03:21:34.528Z,73.90
2019-05-17T03:24:05.559Z,74.00
2019-05-17T03:26:36.415Z,74.00
2019-05-17T03:29:06.883Z,74.00
2019-05-17T03:31:44.825Z,74.00
2019-05-17T03:34:16.930Z,74.00
2019-05-17T03:36:46.857Z,74.00
2019-05-17T03:39:15.521Z,73.90
2019-05-17T03:41:46.005Z,73.80
2019-05-17T03:44:16.810Z,74.80
2019-05-17T03:46:47.292Z,74.70
2019-05-17T03:49:17.895Z,73.80
2019-05-17T03:51:53.167Z,73.80
2019-05-17T03:54:24.455Z,74.70
2019-05-17T03:56:54.950Z,74.00
2019-05-17T03:59:25.441Z,74.00
2019-05-17T04:01:56.338Z,74.10
2019-05-17T04:04:26.947Z,73.90
2019-05-17T04:06:57.517Z,74.00
2019-05-17T04:09:32.873Z,73.90
2019-05-17T04:12:03.110Z,74.00
2019-05-17T04:14:33.782Z,74.00
2019-05-17T04:17:04.502Z,74.20
2019-05-17T04:19:35.028Z,74.30
2019-05-17T04:22:05.481Z,74.30
2019-05-17T04:24:36.081Z,74.30
2019-05-17T04:27:06.812Z,74.00
2019-05-17T04:29:37.380Z,74.30
2019-05-17T04:32:07.890Z,74.30
2019-05-17T04:34:38.464Z,74.30
2019-05-17T04:37:08.996Z,74.30
2019-05-17T04:39:39.569Z,74.30
2019-05-17T04:42:13.354Z,74.40
2019-05-17T04:44:43.197Z,74.40
2019-05-17T04:47:13.947Z,74.50
2019-05-17T04:49:44.449Z,74.60
2019-05-17T04:52:14.909Z,74.50
2019-05-17T04:54:45.695Z,75.40
2019-05-17T04:57:16.349Z,74.50
2019-05-17T04:59:47.366Z,74.60
2019-05-17T05:02:17.920Z,74.70
2019-05-17T05:04:49.749Z,74.70
2019-05-17T05:07:22.626Z,74.80
2019-05-17T05:09:52.591Z,74.90
2019-05-17T05:12:23.105Z,75.10
2019-05-17T05:14:53.717Z,75.10
2019-05-17T05:17:24.205Z,75.10
2019-05-17T05:19:54.879Z,75.30
2019-05-17T05:22:25.349Z,75.40
2019-05-17T05:24:56.240Z,75.50
2019-05-17T05:27:26.693Z,75.60
2019-05-17T05:29:57.278Z,75.70
2019-05-17T05:32:27.790Z,75.90
2019-05-17T05:34:58.353Z,76.00
2019-05-17T05:37:28.830Z,76.10
2019-05-17T05:40:02.372Z,76.20
2019-05-17T05:42:33.212Z,76.20
2019-05-17T05:45:03.723Z,76.20
2019-05-17T05:47:34.186Z,76.40
2019-05-17T05:50:06.089Z,76.60
2019-05-17T05:52:36.700Z,76.70
2019-05-17T05:55:07.733Z,76.80
2019-05-17T05:57:38.385Z,76.90
2019-05-17T06:00:13.010Z,77.10
2019-05-17T06:02:43.641Z,77.10
2019-05-17T06:05:17.270Z,77.20
2019-05-17T06:07:47.314Z,77.40
2019-05-17T06:10:21.775Z,77.50
2019-05-17T06:12:52.087Z,77.60
2019-05-17T06:15:23.489Z,77.70
2019-05-17T06:17:54.784Z,77.80
2019-05-17T06:20:26.052Z,78.00
2019-05-17T06:22:58.118Z,78.10
2019-05-17T06:25:28.657Z,78.10
2019-05-17T06:28:02.116Z,78.40
2019-05-17T06:30:32.566Z,78.40
2019-05-17T06:33:03.152Z,78.50
2019-05-17T06:35:33.640Z,78.60
2019-05-17T06:38:04.152Z,78.70
2019-05-17T06:40:34.661Z,78.70
2019-05-17T06:43:05.315Z,78.70
2019-05-17T06:45:35.830Z,78.80
2019-05-17T06:48:06.575Z,78.70
2019-05-17T06:50:37.065Z,77.80
2019-05-17T06:53:07.593Z,77.80
2019-05-17T06:55:42.393Z,77.90
2019-05-17T06:58:13.113Z,78.00
2019-05-17T07:00:43.593Z,78.00
2019-05-17T07:03:14.117Z,78.00
2019-05-17T07:05:46.414Z,78.00
2019-05-17T07:08:16.979Z,77.90
2019-05-17T07:10:47.473Z,78.00
2019-05-17T07:13:19.804Z,78.10
2019-05-17T07:15:51.081Z,78.10
2019-05-17T07:18:21.683Z,77.90
2019-05-17T07:20:52.288Z,78.10
2019-05-17T07:23:22.817Z,78.10
2019-05-17T07:25:53.375Z,78.10
2019-05-17T07:28:24.103Z,77.90
2019-05-17T07:30:55.066Z,78.00
2019-05-17T07:33:26.805Z,78.00
2019-05-17T07:35:59.373Z,77.80
2019-05-17T07:38:30.377Z,77.80
2019-05-17T07:41:01.053Z,77.70
2019-05-17T07:43:31.602Z,77.70
2019-05-17T07:46:02.089Z,77.50
2019-05-17T07:48:32.577Z,77.40
2019-05-17T07:51:03.077Z,77.40
2019-05-17T07:53:33.844Z,77.30
2019-05-17T07:56:16.103Z,77.30
2019-05-17T07:58:46.692Z,77.10
2019-05-17T08:01:17.181Z,77.10
2019-05-17T08:03:49.961Z,76.80
2019-05-17T08:06:21.998Z,76.80
2019-05-17T08:08:52.515Z,76.80
2019-05-17T08:11:23.029Z,76.60
2019-05-17T08:13:53.535Z,76.50
2019-05-17T08:16:25.505Z,76.40
2019-05-17T08:18:56.009Z,76.30
2019-05-17T08:21:26.543Z,76.20
2019-05-17T08:23:59.874Z,76.20
2019-05-17T08:26:32.543Z,76.00
2019-05-17T08:29:03.212Z,75.90
2019-05-17T08:31:33.739Z,75.90
2019-05-17T08:34:04.257Z,75.80
2019-05-17T08:36:34.793Z,75.70
2019-05-17T08:39:07.224Z,75.60
2019-05-17T08:41:40.242Z,75.50
2019-05-17T08:44:10.309Z,75.40
2019-05-17T08:46:41.070Z,75.30
2019-05-17T08:49:12.037Z,75.20
2019-05-17T08:51:42.544Z,75.20
2019-05-17T08:54:13.074Z,74.90
2019-05-17T08:56:43.583Z,74.70
2019-05-17T08:59:14.233Z,74.60
2019-05-17T09:01:44.766Z,74.60
2019-05-17T09:04:15.628Z,74.40
2019-05-17T09:06:46.102Z,74.30
2019-05-17T09:09:16.822Z,74.20
2019-05-17T09:11:50.039Z,74.10
2019-05-17T09:14:21.443Z,74.00
2019-05-17T09:16:52.098Z,73.80
2019-05-17T09:19:22.866Z,73.50
2019-05-17T09:21:53.576Z,73.50
2019-05-17T09:24:24.469Z,73.40
2019-05-17T09:26:55.097Z,73.20
2019-05-17T09:29:25.588Z,73.00
2019-05-17T09:31:56.097Z,72.80
2019-05-17T09:34:26.666Z,72.50
2019-05-17T09:37:05.660Z,72.60
2019-05-17T09:39:36.226Z,72.40
2019-05-17T09:42:06.983Z,72.10
2019-05-17T09:44:40.245Z,72.10
2019-05-17T09:47:10.379Z,71.70
2019-05-17T09:49:40.981Z,71.40
2019-05-17T09:52:11.616Z,71.30
2019-05-17T09:54:45.290Z,71.10
2019-05-17T09:57:14.432Z,71.00
2019-05-17T09:59:44.888Z,70.50
2019-05-17T10:02:15.416Z,70.40
2019-05-17T10:04:47.013Z,70.20
2019-05-17T10:07:17.680Z,70.00
2019-05-17T10:09:50.145Z,69.60
2019-05-17T10:12:20.884Z,69.50
2019-05-17T10:14:51.396Z,69.50
2019-05-17T10:17:21.913Z,68.90
2019-05-17T10:19:52.384Z,68.70
2019-05-17T10:22:22.954Z,68.50
2019-05-17T10:24:53.408Z,68.30
2019-05-17T10:27:23.895Z,68.10
2019-05-17T10:29:54.487Z,67.90
2019-05-17T10:32:25.005Z,67.50
2019-05-17T10:34:55.466Z,67.40
2019-05-17T10:37:26.006Z,67.30
2019-05-17T10:39:56.525Z,66.90
2019-05-17T10:42:27.037Z,66.60
2019-05-17T10:44:59.784Z,66.10
2019-05-17T10:47:30.880Z,65.80
2019-05-17T10:50:01.497Z,65.20
2019-05-17T10:52:32.022Z,64.50
2019-05-17T10:55:02.638Z,64.20
2019-05-17T10:57:33.334Z,63.50
2019-05-17T11:00:05.149Z,63.20
2019-05-17T11:02:35.712Z,62.90
2019-05-17T11:05:07.636Z,62.70
2019-05-17T11:07:38.256Z,62.10
2019-05-17T11:10:11.575Z,61.70
2019-05-17T11:12:41.880Z,61.10
2019-05-17T11:15:13.072Z,60.60
2019-05-17T11:17:43.588Z,60.20
2019-05-17T11:20:14.586Z,59.90
2019-05-17T11:22:45.083Z,59.60
2019-05-17T11:25:15.632Z,59.30
2019-05-17T11:27:46.121Z,58.80
2019-05-17T11:30:17.198Z,58.40
2019-05-17T11:32:48.110Z,58.20
2019-05-17T11:35:18.643Z,57.90
2019-05-17T11:37:49.413Z,57.30
2019-05-17T11:40:20.915Z,56.90
2019-05-17T11:42:51.393Z,56.70
2019-05-17T11:45:27.912Z,56.10
2019-05-17T11:47:54.177Z,55.70
2019-05-17T11:50:24.853Z,55.50
2019-05-17T11:52:55.285Z,54.90
2019-05-17T11:55:25.788Z,54.60
2019-05-17T11:57:56.240Z,54.10
2019-05-17T12:00:27.442Z,53.90
2019-05-17T12:02:58.016Z,53.40
2019-05-17T12:05:28.708Z,53.10
2019-05-17T12:07:59.384Z,52.60
2019-05-17T12:10:30.039Z,52.80
2019-05-17T12:13:00.606Z,51.60
2019-05-17T12:15:44.544Z,51.20
2019-05-17T12:18:03.753Z,50.80
2019-05-17T12:20:34.288Z,50.70
2019-05-17T12:23:04.860Z,50.20
2019-05-17T12:25:35.652Z,50.00
2019-05-17T12:28:06.670Z,49.70
2019-05-17T12:30:38.708Z,49.40
2019-05-17T12:33:09.219Z,48.60
2019-05-17T12:35:40.119Z,48.20
2019-05-17T12:38:11.372Z,47.70
2019-05-17T12:40:41.996Z,47.30
2019-05-17T12:43:12.647Z,47.50
2019-05-17T12:45:43.142Z,46.30
2019-05-17T12:48:13.650Z,45.50
2019-05-17T12:50:44.621Z,44.40
2019-05-17T12:53:15.186Z,43.60
2019-05-17T12:55:45.665Z,43.30
2019-05-17T12:58:17.915Z,42.60
2019-05-17T13:00:49.840Z,41.50
2019-05-17T13:03:20.466Z,40.20
2019-05-17T13:05:52.561Z,39.00
2019-05-17T13:08:23.037Z,38.30
2019-05-17T13:10:53.535Z,37.50
2019-05-17T13:13:24.023Z,37.40
2019-05-17T13:15:54.484Z,37.00
2019-05-17T13:18:24.932Z,36.70
2019-05-17T13:20:57.693Z,36.30
2019-05-17T13:23:28.326Z,35.70
2019-05-17T13:25:58.865Z,34.80
2019-05-17T13:28:29.383Z,33.80
2019-05-17T13:31:00.222Z,33.00
2019-05-17T13:33:41.851Z,32.20
2019-05-17T13:36:12.492Z,31.00
2019-05-17T13:38:43.015Z,30.10
2019-05-17T13:41:14.374Z,29.40
2019-05-17T13:43:44.945Z,28.80
2019-05-17T13:46:15.420Z,28.20
2019-05-17T13:48:46.975Z,27.80
2019-05-17T13:51:17.569Z,27.70
2019-05-17T13:53:48.690Z,27.30
2019-05-17T13:56:19.301Z,26.80
2019-05-17T13:58:51.019Z,26.40
2019-05-17T14:01:23.143Z,26.10
2019-05-17T14:03:54.024Z,26.00
2019-05-17T14:06:24.614Z,25.90
2019-05-17T14:08:55.123Z,25.80
2019-05-17T14:11:26.601Z,25.60
2019-05-17T14:13:57.273Z,25.20
2019-05-17T14:16:27.742Z,25.00
2019-05-17T14:18:58.283Z,24.80
2019-05-17T14:21:29.041Z,24.80
2019-05-17T14:24:01.683Z,25.20
2019-05-17T14:26:32.660Z,24.50
2019-05-17T14:29:05.955Z,24.60
2019-05-17T14:31:36.465Z,24.50
2019-05-17T14:34:12.386Z,24.60
2019-05-17T14:36:42.916Z,24.70
2019-05-17T14:39:14.745Z,25.10
2019-05-17T14:41:45.460Z,24.80
2019-05-17T14:44:15.953Z,25.70
2019-05-17T14:46:46.412Z,26.10
2019-05-17T14:49:17.911Z,26.00
2019-05-17T14:51:48.409Z,26.40
2019-05-17T14:54:19.254Z,26.60
2019-05-17T14:56:51.226Z,27.00
2019-05-17T14:59:22.960Z,27.40
2019-05-17T15:01:53.473Z,27.20
2019-05-17T15:04:24.490Z,27.00
2019-05-17T15:06:55.104Z,27.00
2019-05-17T15:09:25.612Z,26.80
2019-05-17T15:11:56.505Z,26.80
2019-05-17T15:14:29.555Z,26.80
2019-05-17T15:17:03.054Z,27.20
2019-05-17T15:19:35.108Z,27.20
2019-05-17T15:22:06.635Z,27.30
2019-05-17T15:24:37.227Z,27.60
2019-05-17T15:27:07.732Z,27.80
2019-05-17T15:29:38.325Z,28.00
2019-05-17T15:32:08.978Z,28.20
2019-05-17T15:34:39.852Z,28.30
2019-05-17T15:37:11.497Z,28.50
2019-05-17T15:39:42.922Z,28.60
2019-05-17T15:42:13.452Z,28.90
2019-05-17T15:44:44.004Z,28.70
2019-05-17T15:47:14.511Z,28.90
2019-05-17T15:49:46.495Z,28.90
2019-05-17T15:52:17.004Z,29.00
2019-05-17T15:54:48.659Z,29.10
2019-05-17T15:57:20.336Z,29.10
2019-05-17T15:59:50.892Z,29.10
2019-05-17T16:02:21.422Z,29.20
2019-05-17T16:04:53.086Z,29.30
2019-05-17T16:07:23.581Z,29.40
2019-05-17T16:09:54.115Z,29.50
2019-05-17T16:12:24.644Z,29.80
2019-05-17T16:14:55.195Z,30.00
2019-05-17T16:17:25.698Z,30.30
2019-05-17T16:19:56.244Z,30.60
2019-05-17T16:22:27.198Z,30.70
2019-05-17T16:24:57.718Z,30.80
2019-05-17T16:27:28.284Z,30.80
2019-05-17T16:29:58.883Z,30.70
2019-05-17T16:32:29.414Z,30.60
2019-05-17T16:35:00.225Z,30.40
2019-05-17T16:37:32.152Z,30.30
2019-05-17T16:40:02.618Z,30.30
2019-05-17T16:42:33.438Z,30.30
2019-05-17T16:45:04.068Z,30.10
2019-05-17T16:47:34.545Z,30.20
2019-05-17T16:50:05.791Z,30.10
2019-05-17T16:52:37.403Z,30.30
2019-05-17T16:55:08.761Z,30.50
2019-05-17T16:57:39.541Z,30.70
2019-05-17T17:00:33.046Z,31.10
2019-05-17T17:03:04.270Z,31.40
2019-05-17T17:05:35.357Z,31.90
2019-05-17T17:08:06.797Z,32.00
2019-05-17T17:10:37.411Z,32.20
2019-05-17T17:13:08.176Z,32.10
2019-05-17T17:15:38.776Z,32.10
2019-05-17T17:18:09.373Z,32.30
2019-05-17T17:20:40.620Z,32.40
2019-05-17T17:23:11.825Z,32.60
2019-05-17T17:25:42.376Z,32.90
2019-05-17T17:28:12.857Z,33.20
2019-05-17T17:30:43.344Z,33.50
2019-05-17T17:33:13.873Z,33.70
2019-05-17T17:35:46.436Z,34.00
2019-05-17T17:38:16.923Z,34.20
2019-05-17T17:40:48.455Z,34.50
2019-05-17T17:43:18.984Z,35.00
2019-05-17T17:45:50.362Z,35.30
2019-05-17T17:48:22.902Z,35.50
2019-05-17T17:50:54.515Z,35.70
2019-05-17T17:53:25.035Z,36.00
2019-05-17T17:55:57.643Z,36.30
2019-05-17T17:58:29.369Z,36.60
2019-05-17T18:00:59.973Z,36.80
2019-05-17T18:03:30.965Z,37.10
2019-05-17T18:06:03.209Z,37.40
2019-05-17T18:08:34.794Z,37.70
2019-05-17T18:11:05.801Z,38.00
2019-05-17T18:13:37.669Z,38.30
2019-05-17T18:16:08.428Z,38.60
2019-05-17T18:18:40.591Z,39.00
2019-05-17T18:21:11.446Z,39.20
2019-05-17T18:23:50.712Z,39.50
2019-05-17T18:26:28.774Z,39.70
2019-05-17T18:29:02.302Z,40.10
2019-05-17T18:31:33.624Z,40.50
2019-05-17T18:34:49.866Z,40.90
2019-05-17T18:37:28.595Z,41.80
2019-05-17T18:40:06.928Z,41.20
2019-05-17T18:42:37.593Z,41.60
2019-05-17T18:45:08.634Z,42.00
2019-05-17T18:47:50.244Z,42.40
2019-05-17T18:50:20.139Z,43.00
2019-05-17T18:52:50.854Z,43.30
2019-05-17T18:55:22.055Z,43.90
2019-05-17T18:57:52.753Z,44.30
2019-05-17T19:00:25.360Z,44.70
2019-05-17T19:02:56.139Z,45.10
2019-05-17T19:05:28.080Z,46.20
2019-05-17T19:07:59.047Z,46.00
2019-05-17T19:10:31.129Z,46.20
2019-05-17T19:13:03.398Z,46.60
2019-05-17T19:15:37.430Z,46.80
2019-05-17T19:18:08.823Z,47.10
2019-05-17T19:20:42.298Z,47.30
2019-05-17T19:23:13.707Z,47.60
2019-05-17T19:25:47.288Z,47.80
2019-05-17T19:28:19.105Z,48.10
2019-05-17T19:30:50.766Z,48.20
2019-05-17T19:33:21.842Z,48.40
2019-05-17T19:35:58.489Z,48.40
2019-05-17T19:38:30.693Z,48.70
2019-05-17T19:41:08.863Z,48.90
2019-05-17T19:43:46.214Z,49.10
2019-05-17T19:46:17.231Z,49.20
2019-05-17T19:49:11.032Z,49.40
2019-05-17T19:51:44.687Z,49.70
2019-05-17T19:54:16.901Z,49.90
2019-05-17T19:56:51.075Z,50.10
2019-05-17T19:59:25.747Z,50.40
2019-05-17T20:01:56.304Z,50.60
2019-05-17T20:04:28.454Z,50.90
2019-05-17T20:07:01.099Z,51.10
2019-05-17T20:09:32.012Z,51.20
2019-05-17T20:12:04.436Z,51.50
2019-05-17T20:14:35.440Z,51.70
2019-05-17T20:17:07.860Z,51.90
2019-05-17T20:19:38.787Z,52.60
2019-05-17T20:22:09.478Z,52.20
2019-05-17T20:24:40.027Z,52.50
2019-05-17T20:27:11.525Z,52.60
2019-05-17T20:30:14.849Z,52.80
2019-05-17T20:32:46.100Z,52.90
2019-05-17T20:35:24.111Z,52.80
2019-05-17T20:37:54.739Z,53.10
2019-05-17T20:40:25.756Z,53.30
2019-05-17T20:42:56.643Z,53.40
2019-05-17T20:45:34.614Z,53.70
2019-05-17T20:48:05.581Z,53.90
2019-05-17T20:50:36.213Z,53.90
2019-05-17T20:53:24.560Z,54.20
2019-05-17T20:55:56.803Z,54.30
2019-05-17T20:58:28.519Z,54.30
2019-05-17T21:01:01.340Z,54.50
2019-05-17T21:03:31.942Z,54.60
2019-05-17T21:06:21.500Z,54.70
2019-05-17T21:08:54.686Z,54.90
2019-05-17T21:11:27.541Z,54.90
2019-05-17T21:17:51.144Z,55.20
2019-05-17T21:20:24.690Z,55.00
2019-05-17T21:22:58.037Z,55.30
2019-05-17T21:25:44.338Z,55.50
2019-05-17T21:28:14.797Z,55.60
2019-05-17T21:30:45.324Z,55.80
2019-05-17T21:33:15.925Z,55.90
2019-05-17T21:35:50.022Z,56.10
2019-05-17T21:38:30.051Z,56.20
2019-05-17T21:41:00.759Z,56.30
2019-05-17T21:43:31.320Z,56.50
2019-05-17T21:46:06.013Z,56.60
2019-05-17T21:48:36.513Z,56.70
2019-05-17T21:51:09.085Z,56.80
2019-05-17T21:53:39.599Z,57.10
2019-05-17T21:56:13.393Z,57.10
2019-05-17T21:58:43.878Z,57.00
2019-05-17T22:01:21.267Z,57.00
2019-05-17T22:04:02.485Z,57.00
2019-05-17T22:06:53.128Z,57.20
2019-05-17T22:09:23.926Z,57.20
2019-05-17T22:11:56.441Z,57.20
2019-05-17T22:14:27.019Z,57.30
2019-05-17T22:16:59.603Z,57.50
2019-05-17T22:19:33.665Z,57.60
2019-05-17T22:22:04.322Z,57.60
2019-05-17T22:24:42.442Z,57.80
2019-05-17T22:27:13.181Z,57.90
2019-05-17T22:29:45.567Z,58.00
2019-05-17T22:32:21.775Z,58.00
2019-05-17T22:34:52.375Z,58.10
2019-05-17T22:37:23.025Z,58.10
2019-05-17T22:40:02.302Z,58.20
2019-05-17T22:42:33.001Z,58.30
2019-05-17T22:45:08.221Z,58.50
2019-05-17T22:47:44.466Z,58.60
2019-05-17T22:50:16.498Z,58.60
2019-05-17T22:52:47.312Z,58.60
2019-05-17T22:55:17.810Z,58.70
2019-05-17T22:57:48.698Z,58.90
2019-05-17T23:00:20.532Z,59.00
2019-05-17T23:02:51.131Z,59.00
2019-05-17T23:05:25.892Z,59.10
2019-05-17T23:07:54.274Z,59.90
2019-05-17T23:10:24.733Z,59.90
2019-05-17T23:12:55.453Z,60.00
2019-05-17T23:15:28.196Z,60.00
2019-05-17T23:17:58.725Z,60.00
2019-05-17T23:20:30.481Z,59.90
2019-05-17T23:23:01.039Z,60.00
2019-05-17T23:25:31.869Z,60.00
2019-05-17T23:28:02.520Z,60.20
2019-05-17T23:30:33.346Z,60.20
2019-05-17T23:33:03.874Z,60.30
2019-05-17T23:35:34.383Z,60.40
2019-05-17T23:38:05.073Z,60.50
2019-05-17T23:40:35.563Z,60.50
2019-05-17T23:43:06.018Z,60.40
2019-05-17T23:45:37.514Z,60.60
2019-05-17T23:48:08.174Z,60.50
2019-05-17T23:50:39.104Z,60.60
2019-05-17T23:53:09.766Z,60.80
2019-05-17T23:55:40.379Z,60.80
2019-05-17T23:58:14.038Z,61.20
